sensor_id;sensor_type;location;lat;lon;timestamp;pressure;altitude;pressure_sealevel;temperature;humidity
7268;BME280;3675;43.276;27.962;2024-01-30T00:00:45;100105.00;;;-0.52;82.91
7268;BME280;3675;43.276;27.962;2024-01-30T00:03:18;100106.66;;;-0.53;83.00
7268;BME280;3675;43.276;27.962;2024-01-30T00:05:55;100097.81;;;-0.65;83.49
7268;BME280;3675;43.276;27.962;2024-01-30T00:08:30;100102.28;;;-0.58;83.33
7268;BME280;3675;43.276;27.962;2024-01-30T00:11:07;100099.03;;;-0.54;83.29
7268;BME280;3675;43.276;27.962;2024-01-30T00:13:39;100105.69;;;-0.58;83.74
7268;BME280;3675;43.276;27.962;2024-01-30T00:16:24;100094.59;;;-0.60;83.78
7268;BME280;3675;43.276;27.962;2024-01-30T00:18:57;100095.47;;;-0.59;84.04
7268;BME280;3675;43.276;27.962;2024-01-30T00:21:35;100096.47;;;-0.54;83.89
7268;BME280;3675;43.276;27.962;2024-01-30T00:24:09;100103.22;;;-0.55;83.79
7268;BME280;3675;43.276;27.962;2024-01-30T00:26:42;100105.72;;;-0.56;84.43
7268;BME280;3675;43.276;27.962;2024-01-30T00:29:16;100108.13;;;-0.61;84.45
7268;BME280;3675;43.276;27.962;2024-01-30T00:31:51;100096.28;;;-0.60;84.79
7268;BME280;3675;43.276;27.962;2024-01-30T00:34:43;100101.44;;;-0.57;84.62
7268;BME280;3675;43.276;27.962;2024-01-30T00:37:19;100097.19;;;-0.58;84.66
7268;BME280;3675;43.276;27.962;2024-01-30T00:39:51;100092.28;;;-0.52;84.51
7268;BME280;3675;43.276;27.962;2024-01-30T00:42:25;100096.47;;;-0.54;84.72
7268;BME280;3675;43.276;27.962;2024-01-30T00:44:58;100096.38;;;-0.57;84.93
7268;BME280;3675;43.276;27.962;2024-01-30T00:47:34;100100.78;;;-0.52;84.89
7268;BME280;3675;43.276;27.962;2024-01-30T00:50:07;100114.00;;;-0.62;85.32
7268;BME280;3675;43.276;27.962;2024-01-30T00:52:44;100096.34;;;-0.59;85.29
7268;BME280;3675;43.276;27.962;2024-01-30T00:55:21;100099.88;;;-0.54;84.99
7268;BME280;3675;43.276;27.962;2024-01-30T00:57:58;100089.72;;;-0.54;84.87
7268;BME280;3675;43.276;27.962;2024-01-30T01:00:31;100091.47;;;-0.51;85.09
7268;BME280;3675;43.276;27.962;2024-01-30T01:03:15;100081.81;;;-0.63;85.31
7268;BME280;3675;43.276;27.962;2024-01-30T01:06:04;100095.63;;;-0.55;85.08
7268;BME280;3675;43.276;27.962;2024-01-30T01:08:53;100093.78;;;-0.59;85.34
7268;BME280;3675;43.276;27.962;2024-01-30T01:11:35;100097.19;;;-0.58;85.36
7268;BME280;3675;43.276;27.962;2024-01-30T01:14:12;100104.09;;;-0.54;85.39
7268;BME280;3675;43.276;27.962;2024-01-30T01:17:02;100089.81;;;-0.51;85.07
7268;BME280;3675;43.276;27.962;2024-01-30T01:19:35;100089.88;;;-0.49;85.10
7268;BME280;3675;43.276;27.962;2024-01-30T01:22:08;100073.63;;;-0.54;85.40
7268;BME280;3675;43.276;27.962;2024-01-30T01:24:45;100065.16;;;-0.53;85.11
7268;BME280;3675;43.276;27.962;2024-01-30T01:27:27;100047.81;;;-0.66;85.68
7268;BME280;3675;43.276;27.962;2024-01-30T01:30:04;100074.38;;;-0.57;85.38
7268;BME280;3675;43.276;27.962;2024-01-30T01:32:37;100074.28;;;-0.60;85.58
7268;BME280;3675;43.276;27.962;2024-01-30T01:35:25;100077.78;;;-0.56;85.60
7268;BME280;3675;43.276;27.962;2024-01-30T01:38:01;100076.16;;;-0.54;85.56
7268;BME280;3675;43.276;27.962;2024-01-30T01:40:40;100093.22;;;-0.50;85.30
7268;BME280;3675;43.276;27.962;2024-01-30T01:43:22;100088.84;;;-0.54;84.99
7268;BME280;3675;43.276;27.962;2024-01-30T01:45:56;100071.22;;;-0.50;84.96
7268;BME280;3675;43.276;27.962;2024-01-30T01:48:40;100071.22;;;-0.50;84.88
7268;BME280;3675;43.276;27.962;2024-01-30T01:51:26;100071.28;;;-0.47;84.51
7268;BME280;3675;43.276;27.962;2024-01-30T01:54:15;100074.56;;;-0.51;84.51
7268;BME280;3675;43.276;27.962;2024-01-30T01:56:54;100083.78;;;-0.54;85.06
7268;BME280;3675;43.276;27.962;2024-01-30T01:59:33;100090.00;;;-0.44;84.41
7268;BME280;3675;43.276;27.962;2024-01-30T02:02:14;100087.34;;;-0.48;84.62
7268;BME280;3675;43.276;27.962;2024-01-30T02:04:50;100084.88;;;-0.46;84.40
7268;BME280;3675;43.276;27.962;2024-01-30T02:07:31;100083.91;;;-0.50;84.50
7268;BME280;3675;43.276;27.962;2024-01-30T02:10:05;100082.91;;;-0.55;84.85
7268;BME280;3675;43.276;27.962;2024-01-30T02:12:48;100072.78;;;-0.53;84.92
7268;BME280;3675;43.276;27.962;2024-01-30T02:15:23;100082.19;;;-0.51;84.87
7268;BME280;3675;43.276;27.962;2024-01-30T02:17:58;100081.47;;;-0.47;84.62
7268;BME280;3675;43.276;27.962;2024-01-30T02:20:35;100086.47;;;-0.50;84.76
7268;BME280;3675;43.276;27.962;2024-01-30T02:23:23;100080.41;;;-0.53;84.87
7268;BME280;3675;43.276;27.962;2024-01-30T02:26:02;100086.53;;;-0.47;84.46
7268;BME280;3675;43.276;27.962;2024-01-30T02:28:35;100078.78;;;-0.51;84.86
7268;BME280;3675;43.276;27.962;2024-01-30T02:31:09;100086.25;;;-0.56;84.58
7268;BME280;3675;43.276;27.962;2024-01-30T02:33:42;100081.09;;;-0.59;85.10
7268;BME280;3675;43.276;27.962;2024-01-30T02:36:16;100086.31;;;-0.54;84.91
7268;BME280;3675;43.276;27.962;2024-01-30T02:38:55;100085.38;;;-0.56;85.06
7268;BME280;3675;43.276;27.962;2024-01-30T02:41:27;100084.44;;;-0.60;85.21
7268;BME280;3675;43.276;27.962;2024-01-30T02:44:16;100071.81;;;-0.57;85.31
7268;BME280;3675;43.276;27.962;2024-01-30T02:46:53;100078.19;;;-0.69;85.53
7268;BME280;3675;43.276;27.962;2024-01-30T02:49:34;100073.19;;;-0.68;86.01
7268;BME280;3675;43.276;27.962;2024-01-30T02:52:17;100079.28;;;-0.63;85.86
7268;BME280;3675;43.276;27.962;2024-01-30T02:55:15;100077.63;;;-0.61;85.53
7268;BME280;3675;43.276;27.962;2024-01-30T02:57:59;100085.25;;;-0.61;85.80
7268;BME280;3675;43.276;27.962;2024-01-30T03:00:34;100068.97;;;-0.67;86.08
7268;BME280;3675;43.276;27.962;2024-01-30T03:03:30;100080.81;;;-0.68;86.95
7268;BME280;3675;43.276;27.962;2024-01-30T03:06:24;100075.75;;;-0.66;86.95
7268;BME280;3675;43.276;27.962;2024-01-30T03:09:05;100075.72;;;-0.68;86.57
7268;BME280;3675;43.276;27.962;2024-01-30T03:11:51;100074.91;;;-0.67;86.51
7268;BME280;3675;43.276;27.962;2024-01-30T03:14:33;100075.34;;;-0.80;87.52
7268;BME280;3675;43.276;27.962;2024-01-30T03:17:25;100090.59;;;-0.80;87.61
7268;BME280;3675;43.276;27.962;2024-01-30T03:20:01;100083.13;;;-0.74;87.35
7268;BME280;3675;43.276;27.962;2024-01-30T03:22:40;100078.06;;;-0.74;87.20
7268;BME280;3675;43.276;27.962;2024-01-30T03:25:25;100079.72;;;-0.76;87.55
7268;BME280;3675;43.276;27.962;2024-01-30T03:28:21;100076.31;;;-0.76;87.42
7268;BME280;3675;43.276;27.962;2024-01-30T03:31:05;100076.31;;;-0.75;87.51
7268;BME280;3675;43.276;27.962;2024-01-30T03:33:50;100072.91;;;-0.77;87.28
7268;BME280;3675;43.276;27.962;2024-01-30T03:36:33;100071.94;;;-0.80;87.41
7268;BME280;3675;43.276;27.962;2024-01-30T03:39:11;100071.25;;;-0.75;87.10
7268;BME280;3675;43.276;27.962;2024-01-30T03:41:50;100065.34;;;-0.75;86.68
7268;BME280;3675;43.276;27.962;2024-01-30T03:44:36;100057.72;;;-0.75;86.71
7268;BME280;3675;43.276;27.962;2024-01-30T03:47:14;100052.81;;;-0.69;86.46
7268;BME280;3675;43.276;27.962;2024-01-30T03:49:50;100052.66;;;-0.74;86.65
7268;BME280;3675;43.276;27.962;2024-01-30T03:52:32;100047.81;;;-0.66;86.21
7268;BME280;3675;43.276;27.962;2024-01-30T03:55:20;100059.53;;;-0.71;86.40
7268;BME280;3675;43.276;27.962;2024-01-30T03:58:01;100069.56;;;-0.74;86.51
7268;BME280;3675;43.276;27.962;2024-01-30T04:00:41;100074.78;;;-0.71;86.41
7268;BME280;3675;43.276;27.962;2024-01-30T04:03:22;100069.78;;;-0.68;86.29
7268;BME280;3675;43.276;27.962;2024-01-30T04:06:13;100062.91;;;-0.71;86.04
7268;BME280;3675;43.276;27.962;2024-01-30T04:08:50;100062.00;;;-0.73;86.32
7268;BME280;3675;43.276;27.962;2024-01-30T04:11:27;100073.06;;;-0.71;86.09
7268;BME280;3675;43.276;27.962;2024-01-30T04:14:10;100066.28;;;-0.72;86.49
7268;BME280;3675;43.276;27.962;2024-01-30T04:17:10;100051.91;;;-0.71;86.23
7268;BME280;3675;43.276;27.962;2024-01-30T04:19:49;100055.34;;;-0.69;85.81
7268;BME280;3675;43.276;27.962;2024-01-30T04:22:25;100057.06;;;-0.68;85.86
7268;BME280;3675;43.276;27.962;2024-01-30T04:25:15;100064.63;;;-0.71;86.13
7268;BME280;3675;43.276;27.962;2024-01-30T04:27:58;100067.88;;;-0.75;86.52
7268;BME280;3675;43.276;27.962;2024-01-30T04:30:56;100071.94;;;-0.80;86.43
7268;BME280;3675;43.276;27.962;2024-01-30T04:33:41;100076.59;;;-0.67;86.30
7268;BME280;3675;43.276;27.962;2024-01-30T04:36:45;100089.16;;;-0.70;86.06
7268;BME280;3675;43.276;27.962;2024-01-30T04:39:35;100091.72;;;-0.70;86.15
7268;BME280;3675;43.276;27.962;2024-01-30T04:42:12;100092.63;;;-0.68;85.80
7268;BME280;3675;43.276;27.962;2024-01-30T04:44:59;100086.75;;;-0.67;85.62
7268;BME280;3675;43.276;27.962;2024-01-30T04:47:41;100091.00;;;-0.66;85.66
7268;BME280;3675;43.276;27.962;2024-01-30T04:50:24;100081.75;;;-0.64;85.31
7268;BME280;3675;43.276;27.962;2024-01-30T04:53:16;100085.88;;;-0.68;85.33
7268;BME280;3675;43.276;27.962;2024-01-30T04:55:57;100090.19;;;-0.65;85.45
7268;BME280;3675;43.276;27.962;2024-01-30T04:58:42;100081.66;;;-0.67;85.41
7268;BME280;3675;43.276;27.962;2024-01-30T05:01:27;100075.75;;;-0.66;85.47
7268;BME280;3675;43.276;27.962;2024-01-30T05:04:10;100062.69;;;-0.78;85.95
7268;BME280;3675;43.276;27.962;2024-01-30T05:06:50;100059.31;;;-0.77;85.75
7268;BME280;3675;43.276;27.962;2024-01-30T05:09:33;100082.28;;;-0.74;85.57
7268;BME280;3675;43.276;27.962;2024-01-30T05:12:13;100086.50;;;-0.75;85.90
7268;BME280;3675;43.276;27.962;2024-01-30T05:14:54;100079.72;;;-0.74;85.78
7268;BME280;3675;43.276;27.962;2024-01-30T05:17:47;100068.81;;;-0.72;85.82
7268;BME280;3675;43.276;27.962;2024-01-30T05:20:28;100066.22;;;-0.73;85.66
7268;BME280;3675;43.276;27.962;2024-01-30T05:23:11;100080.59;;;-0.74;85.66
7268;BME280;3675;43.276;27.962;2024-01-30T05:25:56;100096.66;;;-0.75;85.46
7268;BME280;3675;43.276;27.962;2024-01-30T05:28:37;100090.84;;;-0.71;85.45
7268;BME280;3675;43.276;27.962;2024-01-30T05:31:15;100101.78;;;-0.73;85.62
7268;BME280;3675;43.276;27.962;2024-01-30T05:33:49;100101.84;;;-0.72;85.54
7268;BME280;3675;43.276;27.962;2024-01-30T05:36:41;100103.59;;;-0.69;85.30
7268;BME280;3675;43.276;27.962;2024-01-30T05:39:22;100096.03;;;-0.68;85.33
7268;BME280;3675;43.276;27.962;2024-01-30T05:42:01;100084.94;;;-0.71;85.60
7268;BME280;3675;43.276;27.962;2024-01-30T05:44:42;100089.94;;;-0.73;85.66
7268;BME280;3675;43.276;27.962;2024-01-30T05:47:25;100090.66;;;-0.77;85.80
7268;BME280;3675;43.276;27.962;2024-01-30T05:50:15;100089.94;;;-0.73;85.90
7268;BME280;3675;43.276;27.962;2024-01-30T05:52:59;100097.66;;;-0.70;85.63
7268;BME280;3675;43.276;27.962;2024-01-30T05:55:38;100090.81;;;-0.72;85.78
7268;BME280;3675;43.276;27.962;2024-01-30T05:58:26;100097.81;;;-0.65;85.74
7268;BME280;3675;43.276;27.962;2024-01-30T06:01:15;100111.47;;;-0.62;85.43
7268;BME280;3675;43.276;27.962;2024-01-30T06:04:03;100128.28;;;-0.65;85.66
7268;BME280;3675;43.276;27.962;2024-01-30T06:06:51;100132.06;;;-0.54;85.23
7268;BME280;3675;43.276;27.962;2024-01-30T06:09:30;100132.84;;;-0.55;85.18
7268;BME280;3675;43.276;27.962;2024-01-30T06:12:14;100133.91;;;-0.49;85.10
7268;BME280;3675;43.276;27.962;2024-01-30T06:15:11;100143.97;;;-0.52;84.87
7268;BME280;3675;43.276;27.962;2024-01-30T06:17:47;100148.31;;;-0.49;84.95
7268;BME280;3675;43.276;27.962;2024-01-30T06:24:17;100143.22;;;-0.49;85.37
7268;BME280;3675;43.276;27.962;2024-01-30T06:26:54;100147.59;;;-0.45;85.22
7268;BME280;3675;43.276;27.962;2024-01-30T06:29:51;100143.41;;;-0.43;85.27
7268;BME280;3675;43.276;27.962;2024-01-30T06:32:33;100142.59;;;-0.42;85.15
7268;BME280;3675;43.276;27.962;2024-01-30T06:35:14;100156.91;;;-0.44;85.42
7268;BME280;3675;43.276;27.962;2024-01-30T06:37:54;100141.00;;;-0.38;85.33
7268;BME280;3675;43.276;27.962;2024-01-30T06:40:43;100140.13;;;-0.39;85.72
7268;BME280;3675;43.276;27.962;2024-01-30T06:43:31;100148.47;;;-0.43;86.45
7268;BME280;3675;43.276;27.962;2024-01-30T06:46:27;100159.59;;;-0.39;86.43
7268;BME280;3675;43.276;27.962;2024-01-30T06:49:04;100147.91;;;-0.34;86.41
7268;BME280;3675;43.276;27.962;2024-01-30T06:51:44;100154.50;;;-0.39;86.89
7268;BME280;3675;43.276;27.962;2024-01-30T06:54:35;100158.13;;;-0.33;86.45
7268;BME280;3675;43.276;27.962;2024-01-30T06:57:26;100148.91;;;-0.29;85.72
7268;BME280;3675;43.276;27.962;2024-01-30T07:00:07;100143.78;;;-0.31;86.06
7268;BME280;3675;43.276;27.962;2024-01-30T07:02:49;100152.31;;;-0.29;85.30
7268;BME280;3675;43.276;27.962;2024-01-30T07:05:26;100150.72;;;-0.25;85.22
7268;BME280;3675;43.276;27.962;2024-01-30T07:08:15;100163.50;;;-0.24;85.05
7268;BME280;3675;43.276;27.962;2024-01-30T07:10:59;100163.66;;;-0.19;84.67
7268;BME280;3675;43.276;27.962;2024-01-30T07:13:43;100158.47;;;-0.22;84.38
7268;BME280;3675;43.276;27.962;2024-01-30T07:16:23;100157.53;;;-0.24;84.52
7268;BME280;3675;43.276;27.962;2024-01-30T07:19:19;100152.47;;;-0.24;84.59
7268;BME280;3675;43.276;27.962;2024-01-30T07:22:02;100158.59;;;-0.18;84.41
7268;BME280;3675;43.276;27.962;2024-01-30T07:24:46;100165.47;;;-0.15;84.51
7268;BME280;3675;43.276;27.962;2024-01-30T07:27:32;100161.25;;;-0.15;84.16
7268;BME280;3675;43.276;27.962;2024-01-30T07:30:20;100157.91;;;-0.12;84.42
7268;BME280;3675;43.276;27.962;2024-01-30T07:32:55;100157.44;;;-0.01;84.31
7268;BME280;3675;43.276;27.962;2024-01-30T07:36:08;100157.66;;;0.07;83.34
7268;BME280;3675;43.276;27.962;2024-01-30T07:38:49;100159.88;;;-0.04;83.66
7268;BME280;3675;43.276;27.962;2024-01-30T07:41:36;100164.44;;;0.07;83.69
7268;BME280;3675;43.276;27.962;2024-01-30T07:44:18;100167.91;;;0.10;82.97
7268;BME280;3675;43.276;27.962;2024-01-30T07:47:01;100172.97;;;0.09;83.83
7268;BME280;3675;43.276;27.962;2024-01-30T07:49:42;100168.06;;;0.15;83.12
7268;BME280;3675;43.276;27.962;2024-01-30T07:52:51;100156.38;;;0.21;82.64
7268;BME280;3675;43.276;27.962;2024-01-30T07:55:36;100153.84;;;0.21;83.26
7268;BME280;3675;43.276;27.962;2024-01-30T07:58:24;100156.53;;;0.26;82.00
7268;BME280;3675;43.276;27.962;2024-01-30T08:01:11;100162.47;;;0.26;81.86
7268;BME280;3675;43.276;27.962;2024-01-30T08:04:10;100157.41;;;0.28;81.79
7268;BME280;3675;43.276;27.962;2024-01-30T08:06:56;100160.09;;;0.32;81.46
7268;BME280;3675;43.276;27.962;2024-01-30T08:09:50;100153.13;;;0.25;82.05
7268;BME280;3675;43.276;27.962;2024-01-30T08:12:44;100150.69;;;0.30;81.92
7268;BME280;3675;43.276;27.962;2024-01-30T08:15:26;100153.13;;;0.25;81.56
7268;BME280;3675;43.276;27.962;2024-01-30T08:18:08;100160.69;;;0.24;81.80
7268;BME280;3675;43.276;27.962;2024-01-30T08:20:43;100154.00;;;0.27;82.05
7268;BME280;3675;43.276;27.962;2024-01-30T08:23:28;100149.03;;;0.30;82.04
7268;BME280;3675;43.276;27.962;2024-01-30T08:26:25;100149.88;;;0.61;81.62
7268;BME280;3675;43.276;27.962;2024-01-30T08:32:12;100155.25;;;0.71;80.51
7268;BME280;3675;43.276;27.962;2024-01-30T08:35:10;100154.19;;;0.63;80.64
7268;BME280;3675;43.276;27.962;2024-01-30T08:37:56;100159.81;;;0.52;81.03
7268;BME280;3675;43.276;27.962;2024-01-30T08:40:35;100160.53;;;0.48;80.73
7268;BME280;3675;43.276;27.962;2024-01-30T08:43:22;100161.28;;;0.43;80.37
7268;BME280;3675;43.276;27.962;2024-01-30T08:46:11;100155.88;;;0.33;81.48
7268;BME280;3675;43.276;27.962;2024-01-30T08:48:59;100154.50;;;0.44;81.59
7268;BME280;3675;43.276;27.962;2024-01-30T08:51:54;100142.88;;;0.54;81.92
7268;BME280;3675;43.276;27.962;2024-01-30T08:54:33;100154.91;;;0.59;81.52
7268;BME280;3675;43.276;27.962;2024-01-30T08:57:18;100148.22;;;0.63;80.70
7268;BME280;3675;43.276;27.962;2024-01-30T09:00:01;100158.84;;;0.78;80.55
7268;BME280;3675;43.276;27.962;2024-01-30T09:02:54;100167.59;;;0.89;80.78
7268;BME280;3675;43.276;27.962;2024-01-30T09:05:26;100163.72;;;1.02;79.59
7268;BME280;3675;43.276;27.962;2024-01-30T09:08:09;100161.31;;;1.08;79.64
7268;BME280;3675;43.276;27.962;2024-01-30T09:10:57;100156.38;;;1.14;79.30
7268;BME280;3675;43.276;27.962;2024-01-30T09:14:05;100159.19;;;1.24;78.62
7268;BME280;3675;43.276;27.962;2024-01-30T09:16:50;100154.41;;;1.37;77.77
7268;BME280;3675;43.276;27.962;2024-01-30T09:19:45;100154.59;;;1.44;77.93
7268;BME280;3675;43.276;27.962;2024-01-30T09:22:31;100146.03;;;1.41;77.15
7268;BME280;3675;43.276;27.962;2024-01-30T09:25:11;100155.34;;;1.40;77.09
7268;BME280;3675;43.276;27.962;2024-01-30T09:27:58;100154.53;;;1.41;78.04
7268;BME280;3675;43.276;27.962;2024-01-30T09:30:42;100151.94;;;1.40;78.75
7268;BME280;3675;43.276;27.962;2024-01-30T09:33:39;100152.09;;;1.46;78.49
7268;BME280;3675;43.276;27.962;2024-01-30T09:36:38;100143.09;;;1.61;77.66
7268;BME280;3675;43.276;27.962;2024-01-30T09:39:21;100136.22;;;1.57;78.37
7268;BME280;3675;43.276;27.962;2024-01-30T09:42:16;100139.94;;;1.71;77.82
7268;BME280;3675;43.276;27.962;2024-01-30T09:45:15;100140.59;;;1.63;77.52
7268;BME280;3675;43.276;27.962;2024-01-30T09:51:09;100133.56;;;1.53;78.50
7268;BME280;3675;43.276;27.962;2024-01-30T09:53:46;100129.47;;;1.59;77.91
7268;BME280;3675;43.276;27.962;2024-01-30T09:56:19;100129.44;;;1.58;78.02
7268;BME280;3675;43.276;27.962;2024-01-30T09:58:57;100128.78;;;1.66;78.15
7268;BME280;3675;43.276;27.962;2024-01-30T10:01:45;100126.41;;;1.74;77.78
7268;BME280;3675;43.276;27.962;2024-01-30T10:04:36;100106.97;;;1.79;77.59
7268;BME280;3675;43.276;27.962;2024-01-30T10:07:13;100115.63;;;1.87;76.85
7268;BME280;3675;43.276;27.962;2024-01-30T10:09:45;100116.50;;;1.88;76.57
7268;BME280;3675;43.276;27.962;2024-01-30T10:12:26;100118.19;;;1.87;76.39
7268;BME280;3675;43.276;27.962;2024-01-30T10:17:57;100131.00;;;1.89;76.34
7268;BME280;3675;43.276;27.962;2024-01-30T10:20:50;100123.28;;;1.87;75.33
7268;BME280;3675;43.276;27.962;2024-01-30T10:23:33;100118.22;;;1.89;75.49
7268;BME280;3675;43.276;27.962;2024-01-30T10:26:12;100119.00;;;1.86;76.42
7268;BME280;3675;43.276;27.962;2024-01-30T10:29:12;100112.31;;;1.91;76.00
7268;BME280;3675;43.276;27.962;2024-01-30T10:32:10;100117.53;;;1.96;75.65
7268;BME280;3675;43.276;27.962;2024-01-30T10:34:49;100120.19;;;2.00;75.64
7268;BME280;3675;43.276;27.962;2024-01-30T10:37:28;100116.03;;;2.05;75.41
7268;BME280;3675;43.276;27.962;2024-01-30T10:40:16;100107.56;;;2.06;75.92
7268;BME280;3675;43.276;27.962;2024-01-30T10:43:16;100100.88;;;2.11;75.20
7268;BME280;3675;43.276;27.962;2024-01-30T10:45:57;100107.69;;;2.12;74.66
7268;BME280;3675;43.276;27.962;2024-01-30T10:48:46;100115.97;;;2.02;75.04
7268;BME280;3675;43.276;27.962;2024-01-30T10:51:39;100108.25;;;1.99;74.77
7268;BME280;3675;43.276;27.962;2024-01-30T10:54:30;100100.72;;;2.05;74.62
7268;BME280;3675;43.276;27.962;2024-01-30T10:57:37;100101.78;;;2.15;74.56
7268;BME280;3675;43.276;27.962;2024-01-30T11:00:27;100106.78;;;2.10;74.77
7268;BME280;3675;43.276;27.962;2024-01-30T11:03:07;100102.69;;;2.18;74.90
7268;BME280;3675;43.276;27.962;2024-01-30T11:05:58;100102.16;;;2.33;74.36
7268;BME280;3675;43.276;27.962;2024-01-30T11:08:39;100097.28;;;2.45;72.48
7268;BME280;3675;43.276;27.962;2024-01-30T11:11:25;100084.66;;;2.51;72.57
7268;BME280;3675;43.276;27.962;2024-01-30T11:14:18;100084.47;;;2.44;72.68
7268;BME280;3675;43.276;27.962;2024-01-30T11:17:16;100079.88;;;2.26;72.51
7268;BME280;3675;43.276;27.962;2024-01-30T11:20:00;100090.19;;;2.31;71.71
7268;BME280;3675;43.276;27.962;2024-01-30T11:22:37;100089.34;;;2.30;71.96
7268;BME280;3675;43.276;27.962;2024-01-30T11:25:22;100088.38;;;2.25;72.48
7268;BME280;3675;43.276;27.962;2024-01-30T11:28:13;100078.00;;;2.17;72.03
7268;BME280;3675;43.276;27.962;2024-01-30T11:31:26;100082.91;;;2.08;72.79
7268;BME280;3675;43.276;27.962;2024-01-30T11:34:15;100082.81;;;2.02;73.41
7268;BME280;3675;43.276;27.962;2024-01-30T11:37:01;100082.91;;;2.08;72.87
7268;BME280;3675;43.276;27.962;2024-01-30T11:39:46;100074.53;;;2.14;74.06
7268;BME280;3675;43.276;27.962;2024-01-30T11:42:37;100075.53;;;2.22;73.74
7268;BME280;3675;43.276;27.962;2024-01-30T11:45:17;100075.53;;;2.22;72.34
7268;BME280;3675;43.276;27.962;2024-01-30T11:48:07;100071.44;;;2.29;72.32
7268;BME280;3675;43.276;27.962;2024-01-30T11:50:52;100067.19;;;2.29;71.01
7268;BME280;3675;43.276;27.962;2024-01-30T11:53:39;100058.78;;;2.35;70.13
7268;BME280;3675;43.276;27.962;2024-01-30T11:56:17;100062.19;;;2.35;70.96
7268;BME280;3675;43.276;27.962;2024-01-30T11:58:57;100060.59;;;2.39;70.54
7268;BME280;3675;43.276;27.962;2024-01-30T12:01:42;100059.00;;;2.45;70.85
7268;BME280;3675;43.276;27.962;2024-01-30T12:04:38;100042.13;;;2.53;70.08
7268;BME280;3675;43.276;27.962;2024-01-30T12:07:49;100045.75;;;2.64;70.58
7268;BME280;3675;43.276;27.962;2024-01-30T12:13:39;100047.44;;;2.64;70.65
7268;BME280;3675;43.276;27.962;2024-01-30T12:16:34;100053.34;;;2.63;70.52
7268;BME280;3675;43.276;27.962;2024-01-30T12:19:21;100048.94;;;2.54;71.22
7268;BME280;3675;43.276;27.962;2024-01-30T12:22:19;100048.91;;;2.53;70.58
7268;BME280;3675;43.276;27.962;2024-01-30T12:25:12;100049.69;;;2.47;70.75
7268;BME280;3675;43.276;27.962;2024-01-30T12:27:56;100059.03;;;2.47;70.65
7268;BME280;3675;43.276;27.962;2024-01-30T12:30:39;100055.47;;;2.40;71.07
7268;BME280;3675;43.276;27.962;2024-01-30T12:33:26;100052.75;;;2.30;71.42
7268;BME280;3675;43.276;27.962;2024-01-30T12:36:08;100057.09;;;2.35;70.94
7268;BME280;3675;43.276;27.962;2024-01-30T12:39:10;100062.19;;;2.35;71.36
7268;BME280;3675;43.276;27.962;2024-01-30T12:41:55;100063.91;;;2.36;71.63
7268;BME280;3675;43.276;27.962;2024-01-30T12:44:49;100059.72;;;2.38;71.47
7268;BME280;3675;43.276;27.962;2024-01-30T12:47:41;100051.13;;;2.35;70.20
7268;BME280;3675;43.276;27.962;2024-01-30T12:50:29;100045.19;;;2.36;70.57
7268;BME280;3675;43.276;27.962;2024-01-30T12:53:06;100049.59;;;2.44;70.27
7268;BME280;3675;43.276;27.962;2024-01-30T12:55:48;100053.94;;;2.47;69.33
7268;BME280;3675;43.276;27.962;2024-01-30T12:58:34;100050.41;;;2.42;66.89
7268;BME280;3675;43.276;27.962;2024-01-30T13:01:29;100047.72;;;2.34;67.35
7268;BME280;3675;43.276;27.962;2024-01-30T13:04:09;100046.91;;;2.37;68.29
7268;BME280;3675;43.276;27.962;2024-01-30T13:06:48;100034.97;;;2.34;67.94
7268;BME280;3675;43.276;27.962;2024-01-30T13:09:36;100047.81;;;2.39;66.90
7268;BME280;3675;43.276;27.962;2024-01-30T13:12:31;100052.72;;;2.28;67.45
7268;BME280;3675;43.276;27.962;2024-01-30T13:15:06;100054.94;;;2.11;68.31
7268;BME280;3675;43.276;27.962;2024-01-30T13:20:59;100046.69;;;2.26;66.69
7268;BME280;3675;43.276;27.962;2024-01-30T13:23:43;100034.78;;;2.25;65.98
7268;BME280;3675;43.276;27.962;2024-01-30T13:26:36;100034.78;;;2.25;65.86
7268;BME280;3675;43.276;27.962;2024-01-30T13:29:26;100032.25;;;2.25;66.46
7268;BME280;3675;43.276;27.962;2024-01-30T13:32:05;100028.81;;;2.24;66.51
7268;BME280;3675;43.276;27.962;2024-01-30T13:34:55;100032.16;;;2.20;67.25
7268;BME280;3675;43.276;27.962;2024-01-30T13:37:43;100032.28;;;2.28;67.09
7268;BME280;3675;43.276;27.962;2024-01-30T13:40:21;100041.69;;;2.29;66.99
7268;BME280;3675;43.276;27.962;2024-01-30T13:43:03;100037.47;;;2.33;66.41
7268;BME280;3675;43.276;27.962;2024-01-30T13:45:52;100040.09;;;2.36;64.84
7268;BME280;3675;43.276;27.962;2024-01-30T13:48:37;100034.72;;;2.20;65.70
7268;BME280;3675;43.276;27.962;2024-01-30T13:51:34;100032.88;;;2.15;64.08
7268;BME280;3675;43.276;27.962;2024-01-30T13:54:30;100032.97;;;2.19;64.08
7268;BME280;3675;43.276;27.962;2024-01-30T13:57:35;100041.41;;;2.15;64.76
7268;BME280;3675;43.276;27.962;2024-01-30T14:00:27;100038.03;;;2.18;64.75
7268;BME280;3675;43.276;27.962;2024-01-30T14:03:26;100042.31;;;2.19;65.17
7268;BME280;3675;43.276;27.962;2024-01-30T14:06:12;100041.41;;;2.15;64.35
7268;BME280;3675;43.276;27.962;2024-01-30T14:08:50;100041.41;;;2.15;64.72
7268;BME280;3675;43.276;27.962;2024-01-30T14:11:40;100032.88;;;2.15;65.46
7268;BME280;3675;43.276;27.962;2024-01-30T14:14:32;100048.16;;;2.13;65.02
7268;BME280;3675;43.276;27.962;2024-01-30T14:17:22;100047.34;;;2.14;64.77
7268;BME280;3675;43.276;27.962;2024-01-30T14:20:01;100048.88;;;2.06;66.08
7268;BME280;3675;43.276;27.962;2024-01-30T14:22:50;100041.16;;;2.03;66.65
7268;BME280;3675;43.276;27.962;2024-01-30T14:25:33;100047.09;;;2.04;66.01
7268;BME280;3675;43.276;27.962;2024-01-30T14:28:28;100041.63;;;1.84;67.03
7268;BME280;3675;43.276;27.962;2024-01-30T14:31:08;100050.22;;;1.89;67.48
7268;BME280;3675;43.276;27.962;2024-01-30T14:33:58;100045.03;;;1.85;67.99
7268;BME280;3675;43.276;27.962;2024-01-30T14:36:41;100043.34;;;1.87;68.99
7268;BME280;3675;43.276;27.962;2024-01-30T14:39:17;100033.19;;;1.88;68.86
7268;BME280;3675;43.276;27.962;2024-01-30T14:42:03;100025.50;;;1.85;69.43
7268;BME280;3675;43.276;27.962;2024-01-30T14:44:41;100033.16;;;1.87;69.93
7268;BME280;3675;43.276;27.962;2024-01-30T14:47:30;100039.00;;;1.81;69.73
7268;BME280;3675;43.276;27.962;2024-01-30T14:50:23;100032.28;;;1.86;69.13
7268;BME280;3675;43.276;27.962;2024-01-30T14:53:20;100043.31;;;1.84;69.08
7268;BME280;3675;43.276;27.962;2024-01-30T14:56:02;100027.75;;;1.73;69.25